Time;durP1;ratioP1;P1;durP2;ratioP2;P2;SDS_P1;SDS_P2;PMS_P1;PMS_P2;Temp;Humidity;BMP_temperature;BMP_pressure;BME280_temperature;BME280_humidity;BME280_pressure;Samples;Min_cycle;Max_cycle;Signal;HPM_P1;HPM_P2
2022/07/09 01:42:11;;;;;;;;;;;;;;;22.86;49.53;102897.44;6254880;23;19922;-86
2022/07/09 01:44:45;;;;;;;;;;;;;;;22.85;49.69;102896.56;6257925;23;19939;-86
2022/07/09 03:00:56;;;;;;;;;;;;;;;22.84;49.59;102857.16;6273352;23;19945;-86
2022/07/09 03:07:09;;;;;;;;;;;;;;;22.83;49.60;102850.19;6273410;23;19903;-86
2022/07/09 03:10:29;;;;;;;;;;;;;;;22.83;49.92;102850.19;6210645;23;19916;-86
2022/07/09 03:13:46;;;;;;;;;;;;;;;22.83;49.57;102851.06;6210251;23;19900;-86
2022/07/09 03:19:58;;;;;;;;;;;;;;;22.84;49.68;102852.78;6093814;23;19941;-86
2022/07/09 04:50:15;;;;;;;;;;;;;;;22.88;49.79;102803.81;6218986;22;19977;-84
2022/07/09 04:52:50;;;;;;;;;;;;;;;22.89;49.63;102789.81;6271889;23;19891;-84
2022/07/09 04:55:36;;;;;;;;;;;;;;;22.88;49.41;102799.41;6234956;23;19919;-84
2022/07/09 04:58:30;;;;;;;;;;;;;;;22.88;49.46;102788.91;6269994;23;19891;-84
2022/07/09 05:01:15;;;;;;;;;;;;;;;22.90;49.28;102791.56;6249929;23;19908;-82
2022/07/09 05:11:35;;;;;;;;;;;;;;;22.90;49.42;102792.41;6221608;22;19919;-84
2022/07/09 05:16:55;;;;;;;;;;;;;;;22.90;49.23;102812.56;6269827;22;19924;-84
2022/07/09 05:23:10;;;;;;;;;;;;;;;22.89;49.27;102806.44;6182737;23;19920;-84
2022/07/09 05:25:35;;;;;;;;;;;;;;;22.90;49.31;102799.44;6182932;23;19919;-84
2022/07/09 07:06:01;;;;;;;;;;;;;;;22.67;50.84;102858.06;6236041;22;19916;-86
2022/07/09 07:11:36;;;;;;;;;;;;;;;22.66;50.61;102858.03;6272600;23;19922;-86
2022/07/09 07:14:07;;;;;;;;;;;;;;;22.67;50.50;102849.28;6220989;23;19915;-86
2022/07/09 07:20:01;;;;;;;;;;;;;;;22.59;50.41;102852.78;6273811;23;19967;-86
2022/07/09 07:22:48;;;;;;;;;;;;;;;22.59;50.12;102855.41;6271937;23;19915;-86
2022/07/09 07:28:37;;;;;;;;;;;;;;;22.66;49.98;102860.66;6272722;23;19918;-86
2022/07/09 07:34:33;;;;;;;;;;;;;;;22.67;49.85;102852.81;6273593;22;19906;-85
2022/07/09 07:36:59;;;;;;;;;;;;;;;22.75;49.83;102853.66;6246665;23;19908;-83
2022/07/09 07:42:33;;;;;;;;;;;;;;;22.77;49.83;102846.66;6274288;22;19922;-85
2022/07/09 07:45:25;;;;;;;;;;;;;;;22.79;49.62;102852.78;6190097;23;19968;-85
2022/07/09 07:50:47;;;;;;;;;;;;;;;22.71;49.69;102849.31;6248578;22;19911;-85
2022/07/09 07:53:48;;;;;;;;;;;;;;;22.68;49.65;102849.28;6210745;23;19923;-81
2022/07/09 07:56:13;;;;;;;;;;;;;;;22.74;49.18;102853.69;6204194;23;19970;-80
2022/07/09 07:58:44;;;;;;;;;;;;;;;22.76;49.19;102851.94;6182924;23;19909;-83
2022/07/09 08:01:13;;;;;;;;;;;;;;;22.84;49.66;102846.69;6207495;23;19912;-85
2022/07/09 08:03:50;;;;;;;;;;;;;;;22.88;49.29;102846.66;6202622;23;19908;-83
2022/07/09 08:20:19;;;;;;;;;;;;;;;22.79;48.87;102851.94;6269396;22;19903;-84
2022/07/09 08:29:04;;;;;;;;;;;;;;;22.71;48.64;102851.03;6272704;23;19915;-85
2022/07/09 08:31:30;;;;;;;;;;;;;;;22.56;48.91;102859.78;6208326;23;19911;-82
2022/07/09 08:34:00;;;;;;;;;;;;;;;22.68;48.87;102854.53;6256239;23;19969;-79
2022/07/09 08:36:26;;;;;;;;;;;;;;;22.74;48.93;102848.44;6265359;23;20331;-84
2022/07/09 08:38:53;;;;;;;;;;;;;;;22.82;48.49;102856.28;6235143;23;19908;-83
2022/07/09 08:41:33;;;;;;;;;;;;;;;22.87;48.59;102842.31;6219301;23;19902;-82
2022/07/09 08:44:07;;;;;;;;;;;;;;;22.90;48.58;102842.28;6272691;23;19907;-83
2022/07/09 08:46:54;;;;;;;;;;;;;;;22.88;48.31;102844.03;6264867;23;20342;-82
2022/07/09 08:49:43;;;;;;;;;;;;;;;22.92;48.45;102839.69;6274644;22;19915;-83
2022/07/09 08:52:10;;;;;;;;;;;;;;;22.93;48.30;102850.19;6227595;23;19938;-81
2022/07/09 08:57:31;;;;;;;;;;;;;;;22.94;47.66;102843.19;6209797;23;19930;-83
2022/07/09 09:00:17;;;;;;;;;;;;;;;22.86;47.62;102848.41;6147647;23;19916;-81
2022/07/09 09:31:37;;;;;;;;;;;;;;;23.10;45.96;102847.56;6245201;22;19915;-81
2022/07/09 09:40:41;;;;;;;;;;;;;;;22.97;46.95;102856.28;6223114;22;19920;-87
2022/07/09 09:43:27;;;;;;;;;;;;;;;22.96;46.70;102859.81;6217086;23;19920;-82
2022/07/09 09:49:33;;;;;;;;;;;;;;;22.80;46.89;102874.69;6274926;22;19960;-88
2022/07/09 09:58:58;;;;;;;;;;;;;;;22.78;46.28;102886.94;6124290;23;19900;-88
2022/07/09 10:01:48;;;;;;;;;;;;;;;22.79;46.28;102880.81;6234889;22;19900;-86
2022/07/09 11:24:23;;;;;;;;;;;;;;;22.70;45.17;102913.16;6272710;22;19931;-85
2022/07/09 11:40:32;;;;;;;;;;;;;;;23.03;47.30;102907.97;6211578;22;19942;-81
2022/07/09 11:42:57;;;;;;;;;;;;;;;22.86;46.78;102907.94;6281850;22;19919;-78
2022/07/09 11:45:25;;;;;;;;;;;;;;;22.42;51.86;102892.97;6286892;22;19912;-82
2022/07/09 11:48:01;;;;;;;;;;;;;;;22.08;52.54;102903.31;6257916;22;19929;-78
2022/07/09 11:50:27;;;;;;;;;;;;;;;22.00;53.86;102897.19;6282977;22;20274;-79
2022/07/09 11:52:53;;;;;;;;;;;;;;;21.97;56.18;102888.44;6283520;22;19907;-78
2022/07/09 11:55:19;;;;;;;;;;;;;;;21.87;58.62;102893.63;6260592;22;19907;-81
2022/07/09 11:57:53;;;;;;;;;;;;;;;21.74;62.56;102884.81;6293787;22;19907;-82
2022/07/09 12:00:29;;;;;;;;;;;;;;;21.65;63.66;102887.41;6270304;22;19959;-80
2022/07/09 12:03:16;;;;;;;;;;;;;;;21.56;61.16;102904.81;6273633;22;19898;-83
2022/07/09 12:05:50;;;;;;;;;;;;;;;21.61;62.54;102896.09;6239639;23;19908;-83
2022/07/09 12:08:43;;;;;;;;;;;;;;;21.59;62.17;102892.59;6214809;23;19908;-83
2022/07/09 12:11:30;;;;;;;;;;;;;;;21.56;58.02;102890.84;6209185;23;19912;-81
2022/07/09 12:17:03;;;;;;;;;;;;;;;21.56;62.77;102896.06;6241050;23;19919;-84
2022/07/09 12:19:50;;;;;;;;;;;;;;;21.53;63.30;102891.66;6182307;23;19901;-78
2022/07/09 12:25:25;;;;;;;;;;;;;;;21.66;61.90;102903.09;6179989;23;19948;-82
2022/07/09 12:27:51;;;;;;;;;;;;;;;21.68;61.54;102893.50;6146721;23;19892;-82
2022/07/09 12:33:40;;;;;;;;;;;;;;;21.73;61.73;102889.19;6179732;23;19962;-82
2022/07/09 12:36:06;;;;;;;;;;;;;;;21.75;61.45;102889.16;6089647;23;19917;-81
2022/07/09 12:38:38;;;;;;;;;;;;;;;21.79;60.67;102890.94;6090033;23;19909;-82
2022/07/09 12:41:14;;;;;;;;;;;;;;;21.82;61.60;102887.47;6090409;23;19951;-82
2022/07/09 12:43:47;;;;;;;;;;;;;;;21.91;61.39;102893.63;6042935;23;19918;-82
2022/07/09 12:52:40;;;;;;;;;;;;;;;21.95;60.62;102895.41;6036933;23;19921;-82
2022/07/09 13:04:40;;;;;;;;;;;;;;;21.82;61.33;102895.31;6036308;23;19925;-82
2022/07/09 13:07:07;;;;;;;;;;;;;;;21.75;61.35;102889.16;6086095;23;19902;-80
2022/07/09 13:09:39;;;;;;;;;;;;;;;21.71;60.83;102892.63;6093541;23;19913;-81
2022/07/09 13:12:42;;;;;;;;;;;;;;;21.74;58.79;102884.81;6082896;23;19900;-83
2022/07/09 13:18:11;;;;;;;;;;;;;;;21.87;60.68;102891.88;6180571;23;19907;-84
2022/07/09 14:05:52;;;;;;;;;;;;;;;22.05;58.35;102919.03;6236051;23;19926;-81
2022/07/09 14:08:18;;;;;;;;;;;;;;;22.10;58.19;102923.44;6216440;23;19908;-82
2022/07/09 14:10:43;;;;;;;;;;;;;;;22.13;59.10;102928.69;6217944;23;19896;-83
2022/07/09 14:13:09;;;;;;;;;;;;;;;22.21;57.48;102919.97;6217833;23;20421;-82
2022/07/09 14:15:35;;;;;;;;;;;;;;;22.27;57.75;102930.53;6215987;23;19916;-82
2022/07/09 14:18:00;;;;;;;;;;;;;;;22.30;56.16;102925.31;6244162;23;19948;-83
2022/07/09 14:20:26;;;;;;;;;;;;;;;22.31;56.80;102932.28;6219593;23;19900;-83
2022/07/09 14:22:51;;;;;;;;;;;;;;;22.34;56.13;102937.53;6184161;22;19924;-81
2022/07/09 14:25:41;;;;;;;;;;;;;;;22.34;57.44;102935.81;6249057;23;19947;-85
2022/07/09 14:31:30;;;;;;;;;;;;;;;22.26;56.02;102944.53;6152205;23;19904;-84
2022/07/09 14:47:00;;;;;;;;;;;;;;;22.01;53.63;102952.22;6239451;22;19907;-84
2022/07/09 14:56:00;;;;;;;;;;;;;;;22.06;54.91;102955.75;6178762;23;19928;-81
2022/07/09 14:58:26;;;;;;;;;;;;;;;22.08;53.13;102961.00;6147702;23;19941;-79
2022/07/09 15:07:02;;;;;;;;;;;;;;;22.05;52.23;102961.00;6184009;23;19952;-83
2022/07/09 15:09:28;;;;;;;;;;;;;;;21.98;54.94;102967.94;6155320;23;19905;-84
2022/07/09 15:15:21;;;;;;;;;;;;;;;21.76;53.93;102953.84;6209218;23;19908;-85
2022/07/09 15:20:58;;;;;;;;;;;;;;;21.88;53.47;102960.88;6212197;23;19970;-84
2022/07/09 15:26:44;;;;;;;;;;;;;;;21.77;53.77;102956.47;6237145;23;19942;-81
2022/07/09 15:46:36;;;;;;;;;;;;;;;22.19;48.41;102949.72;6274147;22;19925;-85
2022/07/09 15:49:05;;;;;;;;;;;;;;;22.17;50.65;102951.44;6214080;23;20355;-85
2022/07/09 15:51:34;;;;;;;;;;;;;;;22.06;49.55;102961.00;6267411;23;19891;-84
2022/07/09 15:54:00;;;;;;;;;;;;;;;22.12;46.97;102958.41;6175255;23;19913;-85
2022/07/09 16:01:42;;;;;;;;;;;;;;;22.11;47.89;102948.78;6240365;22;19903;-84
2022/07/09 16:07:49;;;;;;;;;;;;;;;22.23;46.34;102952.38;6241784;22;19944;-84
2022/07/09 16:36:40;;;;;;;;;;;;;;;22.01;45.57;102941.72;6251980;23;19920;-83
2022/07/09 16:39:06;;;;;;;;;;;;;;;22.08;44.68;102948.78;6208331;23;19899;-83
2022/07/09 16:41:51;;;;;;;;;;;;;;;22.08;45.87;102955.75;6214505;23;19951;-84
2022/07/09 16:47:20;;;;;;;;;;;;;;;22.26;48.19;102955.03;6226413;23;20259;-79
2022/07/09 16:49:45;;;;;;;;;;;;;;;22.43;49.69;102958.59;6230715;23;19912;-80
2022/07/09 16:52:21;;;;;;;;;;;;;;;22.39;58.52;102956.81;6211379;23;19904;-84
2022/07/09 16:55:06;;;;;;;;;;;;;;;22.21;56.80;102956.69;6227494;22;19967;-80
2022/07/09 16:57:32;;;;;;;;;;;;;;;22.07;55.43;102947.00;6240021;23;19907;-79
2022/07/09 17:08:26;;;;;;;;;;;;;;;22.00;50.39;102945.25;6240379;23;20362;-82
2022/07/09 17:10:56;;;;;;;;;;;;;;;22.00;50.95;102939.13;6244177;23;19900;-82
2022/07/09 17:16:47;;;;;;;;;;;;;;;21.98;52.59;102941.72;6234239;23;19915;-82
2022/07/09 17:19:34;;;;;;;;;;;;;;;21.95;53.34;102939.97;6211253;23;19917;-83
2022/07/09 17:22:00;;;;;;;;;;;;;;;21.88;54.02;102946.03;6186803;23;19959;-81
2022/07/09 17:24:25;;;;;;;;;;;;;;;21.85;53.08;102953.03;6177572;23;19919;-79
2022/07/09 17:26:51;;;;;;;;;;;;;;;21.79;54.30;102943.38;6201410;23;20264;-79
2022/07/09 17:29:16;;;;;;;;;;;;;;;21.74;54.52;102937.22;6181210;23;19959;-80
2022/07/09 17:31:58;;;;;;;;;;;;;;;21.67;55.16;102938.06;6205940;23;19936;-82
2022/07/09 17:34:42;;;;;;;;;;;;;;;21.64;54.07;102938.91;6183497;23;19965;-82
2022/07/09 17:37:11;;;;;;;;;;;;;;;21.64;54.24;102935.41;6209828;23;19908;-80
2022/07/09 17:39:37;;;;;;;;;;;;;;;21.59;53.84;102938.00;6179915;23;19956;-80
2022/07/09 17:50:51;;;;;;;;;;;;;;;21.44;53.65;102943.13;6229887;22;19930;-83
2022/07/09 17:53:35;;;;;;;;;;;;;;;21.44;54.81;102948.38;6216530;23;19931;-83
2022/07/09 17:56:02;;;;;;;;;;;;;;;21.39;54.76;102942.19;6213770;23;19940;-79
2022/07/09 17:58:27;;;;;;;;;;;;;;;21.40;53.68;102943.94;6203641;23;19908;-78
2022/07/09 18:00:53;;;;;;;;;;;;;;;21.35;53.91;102936.91;6232155;23;19908;-80
2022/07/09 18:03:18;;;;;;;;;;;;;;;21.33;54.04;102940.38;6204015;23;19930;-80
2022/07/09 18:05:43;;;;;;;;;;;;;;;21.36;53.40;102940.41;6206143;23;19919;-80
2022/07/09 18:08:09;;;;;;;;;;;;;;;21.36;54.76;102937.78;6205269;23;20232;-80
2022/07/09 18:10:34;;;;;;;;;;;;;;;21.30;54.77;102943.88;6203284;23;20343;-79
2022/07/09 18:13:01;;;;;;;;;;;;;;;21.24;55.34;102935.94;6184918;23;19931;-80
2022/07/09 18:15:26;;;;;;;;;;;;;;;21.33;52.03;102933.41;6187558;23;19919;-79
2022/07/09 18:17:51;;;;;;;;;;;;;;;21.43;51.36;102931.78;6207208;23;19912;-78
2022/07/09 18:20:17;;;;;;;;;;;;;;;21.47;50.41;102930.94;6206556;23;20280;-77
2022/07/09 18:22:42;;;;;;;;;;;;;;;21.48;52.08;102939.66;6200310;23;19908;-78
2022/07/09 18:25:08;;;;;;;;;;;;;;;21.47;50.22;102937.91;6175480;23;20021;-77
2022/07/09 18:27:33;;;;;;;;;;;;;;;;;;6201998;23;19908;-78
2022/07/09 18:29:59;;;;;;;;;;;;;;;21.53;49.99;102933.56;6200420;23;19935;-78
2022/07/09 18:32:24;;;;;;;;;;;;;;;21.55;48.97;102930.97;6199913;23;19908;-79
2022/07/09 18:34:49;;;;;;;;;;;;;;;21.59;48.76;102932.75;6177578;23;19939;-77
2022/07/09 18:37:15;;;;;;;;;;;;;;;21.63;49.77;102931.91;6174728;23;19913;-78
2022/07/09 18:39:40;;;;;;;;;;;;;;;21.65;51.51;102938.03;6220980;23;19977;-79
2022/07/09 18:42:06;;;;;;;;;;;;;;;21.67;51.03;102944.16;6173145;23;20588;-79
2022/07/09 18:44:36;;;;;;;;;;;;;;;21.65;53.18;102940.66;6172088;23;20284;-79
2022/07/09 18:47:01;;;;;;;;;;;;;;;21.71;51.33;102947.66;6201137;23;19907;-79
2022/07/09 18:49:26;;;;;;;;;;;;;;;21.70;51.92;102948.56;6228275;23;19984;-80
2022/07/09 18:51:52;;;;;;;;;;;;;;;21.67;51.69;102945.94;6189651;23;19926;-81
2022/07/09 18:54:18;;;;;;;;;;;;;;;21.67;50.97;102943.31;6241196;23;19915;-80
2022/07/09 18:56:43;;;;;;;;;;;;;;;21.66;51.19;102952.00;6242708;23;19935;-80
2022/07/09 18:59:08;;;;;;;;;;;;;;;21.61;51.82;102938.00;6268933;23;19914;-79
2022/07/09 19:01:34;;;;;;;;;;;;;;;21.60;50.62;102944.09;6240628;23;19908;-81
2022/07/09 19:04:00;;;;;;;;;;;;;;;21.61;52.77;102946.75;6237407;23;19907;-81
2022/07/09 19:06:25;;;;;;;;;;;;;;;21.61;50.17;102949.38;6213149;23;19913;-80
2022/07/09 19:08:51;;;;;;;;;;;;;;;21.58;49.76;102951.97;6232837;23;19943;-79
2022/07/09 19:11:16;;;;;;;;;;;;;;;21.61;50.69;102949.38;6232558;23;19929;-79
2022/07/09 19:13:41;;;;;;;;;;;;;;;21.57;51.75;102948.47;6205454;23;19911;-81
2022/07/09 19:16:06;;;;;;;;;;;;;;;21.60;50.65;102950.25;6231638;23;19908;-81
2022/07/09 19:18:32;;;;;;;;;;;;;;;21.59;51.83;102953.72;6212800;23;19921;-81
2022/07/09 19:20:58;;;;;;;;;;;;;;;21.59;50.50;102955.47;6208249;23;19912;-81
2022/07/09 19:23:23;;;;;;;;;;;;;;;21.59;51.08;102958.09;6265686;23;19927;-81
2022/07/09 19:25:49;;;;;;;;;;;;;;;21.61;49.83;102954.59;6237593;23;19912;-80
2022/07/09 19:28:14;;;;;;;;;;;;;;;21.58;52.02;102954.59;6207913;23;19918;-80
2022/07/09 19:36:07;;;;;;;;;;;;;;;21.59;50.73;102969.44;6259128;23;19957;-78
2022/07/09 19:38:32;;;;;;;;;;;;;;;21.57;51.44;102972.03;6207175;23;19986;-79
2022/07/09 19:40:58;;;;;;;;;;;;;;;21.59;51.33;102976.44;6238422;23;19922;-81
2022/07/09 19:43:48;;;;;;;;;;;;;;;21.58;50.25;102972.94;6241563;23;19912;-83
2022/07/09 19:46:20;;;;;;;;;;;;;;;21.61;49.90;102977.31;6255887;23;19908;-78
2022/07/09 19:48:53;;;;;;;;;;;;;;;21.60;52.53;102983.41;6230489;23;19891;-82
2022/07/09 19:51:29;;;;;;;;;;;;;;;21.60;50.83;102978.16;6234089;23;19931;-81
2022/07/09 19:53:55;;;;;;;;;;;;;;;21.60;50.99;102980.78;6235456;23;19916;-81
2022/07/09 19:56:22;;;;;;;;;;;;;;;21.61;52.49;102990.41;6189279;23;19923;-81
2022/07/09 19:58:48;;;;;;;;;;;;;;;21.60;53.35;102986.03;6243843;23;19900;-81
2022/07/09 20:03:53;;;;;;;;;;;;;;;21.59;52.14;102974.69;6257016;22;19941;-81
2022/07/09 20:06:21;;;;;;;;;;;;;;;21.60;51.06;102983.41;6239682;23;20286;-82
2022/07/09 20:08:47;;;;;;;;;;;;;;;21.59;51.03;102985.16;6241544;23;19916;-82
2022/07/09 20:11:13;;;;;;;;;;;;;;;21.57;50.50;102987.75;6241021;23;19934;-82
2022/07/09 20:13:38;;;;;;;;;;;;;;;21.61;51.84;102987.78;6265392;23;19930;-82
2022/07/09 20:16:04;;;;;;;;;;;;;;;21.60;51.69;102986.94;6238762;23;19908;-82
2022/07/09 20:18:29;;;;;;;;;;;;;;;21.57;52.16;102984.25;6237600;23;19961;-82
2022/07/09 20:20:57;;;;;;;;;;;;;;;21.53;51.37;102988.59;6241680;23;19907;-82
2022/07/09 20:23:22;;;;;;;;;;;;;;;21.58;50.71;102983.41;6238190;23;19908;-81
2022/07/09 20:25:47;;;;;;;;;;;;;;;21.60;51.36;102986.03;6241342;23;19918;-80
2022/07/09 20:28:13;;;;;;;;;;;;;;;21.59;51.95;102987.78;6213156;23;19946;-81
2022/07/09 20:30:38;;;;;;;;;;;;;;;21.59;51.24;102987.78;6232727;23;19907;-80
2022/07/09 20:33:04;;;;;;;;;;;;;;;21.61;51.23;102995.66;6208226;23;19916;-80
2022/07/09 20:35:31;;;;;;;;;;;;;;;21.62;50.64;102987.78;6232955;23;19908;-80
2022/07/09 20:37:58;;;;;;;;;;;;;;;21.63;52.40;102986.94;6247321;23;19912;-81
2022/07/09 20:40:24;;;;;;;;;;;;;;;21.61;51.42;102987.78;6266793;23;19953;-80
2022/07/09 20:42:51;;;;;;;;;;;;;;;21.63;51.36;102986.94;6263318;22;20320;-80
2022/07/09 20:45:17;;;;;;;;;;;;;;;21.61;50.28;102987.78;6236712;23;19918;-80
2022/07/09 20:51:21;;;;;;;;;;;;;;;21.64;49.86;102982.56;6237941;23;20000;-82
2022/07/09 20:56:37;;;;;;;;;;;;;;;21.66;50.76;102979.09;6298995;22;19954;-83
2022/07/09 20:59:03;;;;;;;;;;;;;;;21.65;50.44;102969.47;6305863;22;19947;-83
2022/07/09 21:01:28;;;;;;;;;;;;;;;21.65;50.22;102974.72;6278099;22;19907;-83
2022/07/09 21:03:55;;;;;;;;;;;;;;;21.66;50.86;102970.34;6277589;22;19914;-81
2022/07/09 21:12:16;;;;;;;;;;;;;;;21.68;51.27;102968.63;6306802;22;19899;-83
2022/07/09 21:35:00;;;;;;;;;;;;;;;21.37;54.19;102960.50;6266230;23;19922;-78
2022/07/09 21:37:27;;;;;;;;;;;;;;;21.33;54.61;102966.56;6250018;23;19986;-77
2022/07/09 21:39:52;;;;;;;;;;;;;;;21.33;53.62;102963.97;6224357;23;19912;-78
2022/07/09 21:42:20;;;;;;;;;;;;;;;21.31;53.58;102965.69;6253739;23;19908;-77
2022/07/09 21:44:45;;;;;;;;;;;;;;;21.32;53.65;102964.84;6226928;23;19930;-78
2022/07/09 21:47:11;;;;;;;;;;;;;;;21.33;54.42;102962.22;6226766;23;19911;-78
2022/07/09 21:49:36;;;;;;;;;;;;;;;21.35;54.16;102960.47;6199819;23;19922;-78
2022/07/09 21:52:01;;;;;;;;;;;;;;;21.35;53.28;102955.25;6199967;23;19912;-78
2022/07/09 21:54:26;;;;;;;;;;;;;;;21.37;55.51;102957.88;6200838;23;19994;-77
2022/07/09 21:56:52;;;;;;;;;;;;;;;21.37;54.30;102955.25;6251589;23;19910;-77
2022/07/09 21:59:17;;;;;;;;;;;;;;;21.36;53.49;102953.50;6226637;23;19912;-77
2022/07/09 22:01:42;;;;;;;;;;;;;;;21.33;53.18;102949.13;6225544;23;19911;-77
2022/07/09 22:04:08;;;;;;;;;;;;;;;21.34;53.62;102947.41;6203899;23;19911;-76
2022/07/09 22:06:33;;;;;;;;;;;;;;;21.35;54.47;102954.38;6227137;23;20009;-77
2022/07/09 22:08:58;;;;;;;;;;;;;;;21.34;53.57;102950.03;6197193;23;19921;-77
2022/07/09 22:11:24;;;;;;;;;;;;;;;21.34;53.22;102947.41;6197109;23;19991;-77
2022/07/09 22:13:49;;;;;;;;;;;;;;;21.34;53.87;102942.16;6197392;23;20209;-77
2022/07/09 22:16:14;;;;;;;;;;;;;;;21.34;53.42;102945.66;6197529;23;20292;-77
2022/07/09 22:18:42;;;;;;;;;;;;;;;21.36;53.94;102948.25;6198084;23;20290;-77
2022/07/09 22:21:07;;;;;;;;;;;;;;;21.38;54.46;102949.16;6252105;23;19939;-77
2022/07/09 22:23:32;;;;;;;;;;;;;;;21.40;53.84;102943.94;6226403;23;19961;-78
2022/07/09 22:25:57;;;;;;;;;;;;;;;21.42;54.85;102948.34;6203456;23;19977;-78
2022/07/09 22:28:23;;;;;;;;;;;;;;;21.44;54.54;102950.97;6202893;23;19986;-79
2022/07/09 22:30:48;;;;;;;;;;;;;;;21.44;54.25;102936.13;6197009;23;19916;-79
2022/07/09 22:33:13;;;;;;;;;;;;;;;21.45;53.47;102939.63;6203140;23;19942;-79
2022/07/09 22:35:38;;;;;;;;;;;;;;;21.44;53.32;102953.59;6180307;23;19931;-79
2022/07/09 22:38:04;;;;;;;;;;;;;;;21.44;53.44;102957.09;6178863;23;19919;-79
2022/07/09 22:40:29;;;;;;;;;;;;;;;21.45;53.85;102952.72;6174426;23;19912;-78
2022/07/09 22:42:55;;;;;;;;;;;;;;;21.45;53.63;102939.63;6200125;23;20236;-79
2022/07/09 22:45:21;;;;;;;;;;;;;;;21.44;52.84;102940.50;6199959;23;20277;-79
2022/07/09 22:47:46;;;;;;;;;;;;;;;21.43;53.36;102938.78;6200528;23;19919;-79
2022/07/09 22:50:12;;;;;;;;;;;;;;;21.42;52.96;102939.63;6193188;23;19916;-79
2022/07/09 22:52:39;;;;;;;;;;;;;;;21.41;52.53;102948.31;6170115;23;19911;-79
2022/07/09 22:55:05;;;;;;;;;;;;;;;21.40;53.05;102943.94;6196494;23;20235;-79
2022/07/09 22:57:30;;;;;;;;;;;;;;;21.39;51.95;102945.69;6170313;23;19931;-79
2022/07/09 22:59:56;;;;;;;;;;;;;;;21.39;52.60;102944.81;6169923;23;19943;-79
2022/07/09 23:02:21;;;;;;;;;;;;;;;21.40;54.20;102947.41;6221222;23;19911;-79
2022/07/09 23:04:46;;;;;;;;;;;;;;;21.40;52.69;102946.56;6192866;23;20359;-79
2022/07/09 23:08:54;;;;;;;;;;;;;;;21.41;52.39;102937.84;6196083;23;20241;-79
2022/07/09 23:09:56;;;;;;;;;;;;;;;21.42;52.61;102935.25;6222171;23;19916;-79
2022/07/09 23:12:22;;;;;;;;;;;;;;;21.44;52.50;102932.66;6196608;23;19912;-78
2022/07/09 23:14:47;;;;;;;;;;;;;;;21.43;52.31;102933.53;6195718;23;19958;-79
2022/07/09 23:17:12;;;;;;;;;;;;;;;21.41;52.01;102917.78;6170507;23;19919;-79
2022/07/09 23:19:38;;;;;;;;;;;;;;;21.40;52.69;102918.59;6169341;23;19951;-79
2022/07/09 23:22:03;;;;;;;;;;;;;;;21.40;52.84;102917.75;6168127;23;19912;-79
2022/07/09 23:24:29;;;;;;;;;;;;;;;21.39;52.29;102916.88;6167356;23;19912;-79
2022/07/09 23:26:54;;;;;;;;;;;;;;;21.40;51.45;102916.00;6192045;23;19908;-79
2022/07/09 23:29:19;;;;;;;;;;;;;;;21.39;51.89;102913.38;6200757;23;19986;-79
2022/07/09 23:31:44;;;;;;;;;;;;;;;21.39;51.47;102919.50;6165443;23;20336;-79
2022/07/09 23:34:09;;;;;;;;;;;;;;;21.41;51.88;102906.41;6217989;23;20320;-79
2022/07/09 23:36:35;;;;;;;;;;;;;;;21.43;51.88;102916.06;6166153;23;20396;-79
2022/07/09 23:39:00;;;;;;;;;;;;;;;21.43;51.21;102910.81;6191074;23;19935;-79
2022/07/09 23:41:25;;;;;;;;;;;;;;;21.44;51.41;102914.31;6166695;23;20009;-79
2022/07/09 23:43:51;;;;;;;;;;;;;;;21.43;51.60;102904.72;6191371;23;19911;-79
2022/07/09 23:46:16;;;;;;;;;;;;;;;21.42;51.27;102903.81;6191462;23;20451;-79
2022/07/09 23:48:41;;;;;;;;;;;;;;;21.41;51.27;102894.22;6218391;23;19912;-79
2022/07/09 23:51:09;;;;;;;;;;;;;;;21.40;51.44;102902.91;6167253;23;19994;-79
2022/07/09 23:53:34;;;;;;;;;;;;;;;21.40;51.57;102900.28;6167786;23;20328;-79
2022/07/09 23:55:59;;;;;;;;;;;;;;;21.39;51.66;102897.66;6191937;23;19962;-79
2022/07/09 23:58:25;;;;;;;;;;;;;;;21.42;51.28;102895.97;6167142;23;19982;-79
